Twentynine Palms (Self) Airport
KNXP : now visible

Airfield :











YOU CAN JOIN US ON...

 
LOGIN :

Register | Disclaimer

   EN    FR    IT 

 









Legend :    VFR   Marginal VFR   IFR   Intensive IFR   Very Intensive IFR
Visi :
Ceiling :
>= 8 km
>= 3000ft
5 to 8 km
1000 to 3000 ft
1500m to 5 km
500 to 1000 ft
800 to 1500m
200 to 500 ft
< 800m
< 200 ft
Symbols :   Thunderstorms  Fog  Heavy snow  Heavy precipitations  Wind > 20 kt






- Airport Elevation : 2051 ft


KNXP - Twentynine Palms (Self)

CURRENT METAR :
  • 180056Z 30004KT 7SM SCT150 BKN250 12/M05 A3028 RMK AO2 SLP240 T01171050

EXPIRED METARs :
  • 172356Z 32004KT 7SM SCT150 BKN250 13/M07 A3028 RMK AO2 SLP238 T01331067 10144 20100 55004
  • 172256Z 00000KT 7SM FEW150 SCT250 13/M08 A3028 RMK AO2 SLP237 T01331078

TAF AMD TAF KNXP
Valid from the 17 at 22:00 until the 18 at 21:00 UTC


1722/1821 31008KT 9999 SCT250 QNH3026INS
BECMG 1801/1803 VRB05KT 9999 SCT250 QNH3025INS T01/1815Z T14/1821Z AMD 2233



MET'MAP, your aeronautical weather chart ! - Copyright ORBIFLY December 2007 - Disclaimer

ORBIFLY MET'MAP TEAM :

Programming & Development : Alexandra Zaïnal
Concept & original design : Baudouin d'Aumeries
Assistance for programming : Marc-Olivier Méhu
Technical & hardware support : Manuel Goepfert

Contact : metmap@orbifly.com




SOURCES & CREDITS :

   NOAA       Earth
Advisory